sensor_id;sensor_type;location;lat;lon;timestamp;temperature;humidity
67586;SHT31;55785;47.946;20.540;2024-03-17T00:00:21;5.89;93.52
67586;SHT31;55785;47.946;20.540;2024-03-17T00:02:46;5.85;93.37
67586;SHT31;55785;47.946;20.540;2024-03-17T00:05:12;5.89;93.34
67586;SHT31;55785;47.946;20.540;2024-03-17T00:07:37;5.87;93.36
67586;SHT31;55785;47.946;20.540;2024-03-17T00:10:03;5.90;93.26
67586;SHT31;55785;47.946;20.540;2024-03-17T00:12:29;5.79;92.98
67586;SHT31;55785;47.946;20.540;2024-03-17T00:14:54;5.65;92.82
67586;SHT31;55785;47.946;20.540;2024-03-17T00:17:19;5.55;92.79
67586;SHT31;55785;47.946;20.540;2024-03-17T00:19:45;5.51;92.77
67586;SHT31;55785;47.946;20.540;2024-03-17T00:22:10;5.45;92.60
67586;SHT31;55785;47.946;20.540;2024-03-17T00:24:35;5.48;92.57
67586;SHT31;55785;47.946;20.540;2024-03-17T00:27:01;5.51;92.66
67586;SHT31;55785;47.946;20.540;2024-03-17T00:29:26;5.56;92.97
67586;SHT31;55785;47.946;20.540;2024-03-17T00:31:52;5.59;92.90
67586;SHT31;55785;47.946;20.540;2024-03-17T00:34:17;5.56;92.87
67586;SHT31;55785;47.946;20.540;2024-03-17T00:36:42;5.51;92.67
67586;SHT31;55785;47.946;20.540;2024-03-17T00:39:08;5.46;92.62
67586;SHT31;55785;47.946;20.540;2024-03-17T00:41:33;5.52;92.80
67586;SHT31;55785;47.946;20.540;2024-03-17T00:43:58;5.48;92.84
67586;SHT31;55785;47.946;20.540;2024-03-17T00:46:24;5.44;92.67
67586;SHT31;55785;47.946;20.540;2024-03-17T00:48:50;5.34;92.51
67586;SHT31;55785;47.946;20.540;2024-03-17T00:51:16;5.28;92.63
67586;SHT31;55785;47.946;20.540;2024-03-17T00:53:42;5.24;92.46
67586;SHT31;55785;47.946;20.540;2024-03-17T00:56:07;5.15;92.36
67586;SHT31;55785;47.946;20.540;2024-03-17T00:58:33;5.13;92.53
67586;SHT31;55785;47.946;20.540;2024-03-17T01:00:58;5.18;92.77
67586;SHT31;55785;47.946;20.540;2024-03-17T01:03:23;5.20;92.75
67586;SHT31;55785;47.946;20.540;2024-03-17T01:05:49;5.18;92.64
67586;SHT31;55785;47.946;20.540;2024-03-17T01:08:14;5.17;92.65
67586;SHT31;55785;47.946;20.540;2024-03-17T01:10:40;5.18;92.79
67586;SHT31;55785;47.946;20.540;2024-03-17T01:13:07;5.24;92.89
67586;SHT31;55785;47.946;20.540;2024-03-17T01:15:34;5.18;92.66
67586;SHT31;55785;47.946;20.540;2024-03-17T01:17:59;5.07;92.38
67586;SHT31;55785;47.946;20.540;2024-03-17T01:20:28;5.00;92.21
67586;SHT31;55785;47.946;20.540;2024-03-17T01:22:53;4.87;92.17
67586;SHT31;55785;47.946;20.540;2024-03-17T01:25:19;4.84;92.29
67586;SHT31;55785;47.946;20.540;2024-03-17T01:27:44;4.81;92.55
67586;SHT31;55785;47.946;20.540;2024-03-17T01:30:11;4.69;92.61
67586;SHT31;55785;47.946;20.540;2024-03-17T01:32:36;4.57;92.61
67586;SHT31;55785;47.946;20.540;2024-03-17T01:35:02;4.57;93.11
67586;SHT31;55785;47.946;20.540;2024-03-17T01:37:27;4.70;93.27
67586;SHT31;55785;47.946;20.540;2024-03-17T01:39:53;4.87;93.55
67586;SHT31;55785;47.946;20.540;2024-03-17T01:42:18;5.03;93.99
67586;SHT31;55785;47.946;20.540;2024-03-17T01:44:43;5.18;93.91
67586;SHT31;55785;47.946;20.540;2024-03-17T01:47:09;5.30;94.20
67586;SHT31;55785;47.946;20.540;2024-03-17T01:49:35;5.41;94.27
67586;SHT31;55785;47.946;20.540;2024-03-17T01:52:00;5.60;94.37
67586;SHT31;55785;47.946;20.540;2024-03-17T01:54:26;5.55;93.98
67586;SHT31;55785;47.946;20.540;2024-03-17T01:56:51;5.48;93.85
67586;SHT31;55785;47.946;20.540;2024-03-17T01:59:17;5.46;94.06
67586;SHT31;55785;47.946;20.540;2024-03-17T02:01:42;5.53;94.26
67586;SHT31;55785;47.946;20.540;2024-03-17T02:04:08;5.66;94.25
67586;SHT31;55785;47.946;20.540;2024-03-17T02:06:33;5.67;94.10
67586;SHT31;55785;47.946;20.540;2024-03-17T02:08:59;5.56;94.05
67586;SHT31;55785;47.946;20.540;2024-03-17T02:13:49;5.73;94.36
67586;SHT31;55785;47.946;20.540;2024-03-17T02:16:15;6.10;94.76
67586;SHT31;55785;47.946;20.540;2024-03-17T02:18:40;6.62;95.22
67586;SHT31;55785;47.946;20.540;2024-03-17T02:21:05;7.19;95.50
67586;SHT31;55785;47.946;20.540;2024-03-17T02:23:33;7.52;95.49
67586;SHT31;55785;47.946;20.540;2024-03-17T02:25:58;7.77;95.32
67586;SHT31;55785;47.946;20.540;2024-03-17T02:28:24;7.86;94.87
67586;SHT31;55785;47.946;20.540;2024-03-17T02:30:49;7.92;94.67
67586;SHT31;55785;47.946;20.540;2024-03-17T02:33:14;7.92;94.63
67586;SHT31;55785;47.946;20.540;2024-03-17T02:35:40;7.86;94.43
67586;SHT31;55785;47.946;20.540;2024-03-17T02:38:05;7.74;94.13
67586;SHT31;55785;47.946;20.540;2024-03-17T02:40:31;7.79;94.27
67586;SHT31;55785;47.946;20.540;2024-03-17T02:42:56;7.68;94.11
67586;SHT31;55785;47.946;20.540;2024-03-17T02:45:21;7.64;93.93
67586;SHT31;55785;47.946;20.540;2024-03-17T02:47:47;7.59;93.89
67586;SHT31;55785;47.946;20.540;2024-03-17T02:50:12;7.61;93.79
67586;SHT31;55785;47.946;20.540;2024-03-17T02:52:37;7.55;93.47
67586;SHT31;55785;47.946;20.540;2024-03-17T02:55:03;7.43;93.10
67586;SHT31;55785;47.946;20.540;2024-03-17T02:57:29;7.38;93.10
67586;SHT31;55785;47.946;20.540;2024-03-17T02:59:55;7.28;92.73
67586;SHT31;55785;47.946;20.540;2024-03-17T03:02:21;7.17;92.73
67586;SHT31;55785;47.946;20.540;2024-03-17T03:04:46;7.09;92.68
67586;SHT31;55785;47.946;20.540;2024-03-17T03:07:12;7.03;92.68
67586;SHT31;55785;47.946;20.540;2024-03-17T03:09:37;6.99;92.55
67586;SHT31;55785;47.946;20.540;2024-03-17T03:12:03;6.96;92.35
67586;SHT31;55785;47.946;20.540;2024-03-17T03:14:29;6.85;92.22
67586;SHT31;55785;47.946;20.540;2024-03-17T03:16:54;6.59;91.92
67586;SHT31;55785;47.946;20.540;2024-03-17T03:19:20;6.48;91.91
67586;SHT31;55785;47.946;20.540;2024-03-17T03:21:45;6.38;92.08
67586;SHT31;55785;47.946;20.540;2024-03-17T03:24:12;6.32;92.18
67586;SHT31;55785;47.946;20.540;2024-03-17T03:26:38;6.31;92.34
67586;SHT31;55785;47.946;20.540;2024-03-17T03:29:04;6.32;92.50
67586;SHT31;55785;47.946;20.540;2024-03-17T03:31:33;6.31;92.91
67586;SHT31;55785;47.946;20.540;2024-03-17T03:34:02;6.32;92.83
67586;SHT31;55785;47.946;20.540;2024-03-17T03:36:27;6.25;93.10
67586;SHT31;55785;47.946;20.540;2024-03-17T03:38:53;6.42;93.43
67586;SHT31;55785;47.946;20.540;2024-03-17T03:41:19;6.56;93.55
67586;SHT31;55785;47.946;20.540;2024-03-17T03:43:44;6.58;93.58
67586;SHT31;55785;47.946;20.540;2024-03-17T03:46:10;6.62;93.52
67586;SHT31;55785;47.946;20.540;2024-03-17T03:48:35;6.79;93.79
67586;SHT31;55785;47.946;20.540;2024-03-17T03:51:07;6.83;93.62
67586;SHT31;55785;47.946;20.540;2024-03-17T03:53:33;6.90;93.61
67586;SHT31;55785;47.946;20.540;2024-03-17T03:55:59;6.96;93.64
67586;SHT31;55785;47.946;20.540;2024-03-17T03:58:24;7.04;93.59
67586;SHT31;55785;47.946;20.540;2024-03-17T04:00:50;7.09;93.59
67586;SHT31;55785;47.946;20.540;2024-03-17T04:03:15;7.17;93.58
67586;SHT31;55785;47.946;20.540;2024-03-17T04:05:40;7.17;93.53
67586;SHT31;55785;47.946;20.540;2024-03-17T04:08:06;7.10;93.41
67586;SHT31;55785;47.946;20.540;2024-03-17T04:10:31;7.16;93.45
67586;SHT31;55785;47.946;20.540;2024-03-17T04:12:56;7.26;93.29
67586;SHT31;55785;47.946;20.540;2024-03-17T04:15:22;7.28;93.28
67586;SHT31;55785;47.946;20.540;2024-03-17T04:17:47;7.27;93.12
67586;SHT31;55785;47.946;20.540;2024-03-17T04:20:13;7.26;93.11
67586;SHT31;55785;47.946;20.540;2024-03-17T04:22:39;7.34;93.20
67586;SHT31;55785;47.946;20.540;2024-03-17T04:25:04;7.51;93.23
67586;SHT31;55785;47.946;20.540;2024-03-17T04:27:30;7.65;93.12
67586;SHT31;55785;47.946;20.540;2024-03-17T04:29:58;7.62;91.98
67586;SHT31;55785;47.946;20.540;2024-03-17T04:32:23;7.65;91.94
67586;SHT31;55785;47.946;20.540;2024-03-17T04:34:49;7.65;91.80
67586;SHT31;55785;47.946;20.540;2024-03-17T04:37:14;7.79;91.92
67586;SHT31;55785;47.946;20.540;2024-03-17T04:39:41;7.79;91.75
67586;SHT31;55785;47.946;20.540;2024-03-17T04:42:07;7.90;92.07
67586;SHT31;55785;47.946;20.540;2024-03-17T04:44:32;7.92;92.12
67586;SHT31;55785;47.946;20.540;2024-03-17T04:46:58;7.99;92.05
67586;SHT31;55785;47.946;20.540;2024-03-17T04:49:23;8.03;91.95
67586;SHT31;55785;47.946;20.540;2024-03-17T04:51:48;8.05;91.85
67586;SHT31;55785;47.946;20.540;2024-03-17T04:54:14;8.05;91.68
67586;SHT31;55785;47.946;20.540;2024-03-17T04:56:39;8.10;91.62
67586;SHT31;55785;47.946;20.540;2024-03-17T04:59:04;8.14;91.44
67586;SHT31;55785;47.946;20.540;2024-03-17T05:01:30;8.07;91.51
67586;SHT31;55785;47.946;20.540;2024-03-17T05:03:55;8.06;91.48
67586;SHT31;55785;47.946;20.540;2024-03-17T05:06:21;7.83;91.52
67586;SHT31;55785;47.946;20.540;2024-03-17T05:08:46;7.81;91.75
67586;SHT31;55785;47.946;20.540;2024-03-17T05:11:11;7.79;91.84
67586;SHT31;55785;47.946;20.540;2024-03-17T05:13:37;7.75;92.01
67586;SHT31;55785;47.946;20.540;2024-03-17T05:16:02;7.71;92.02
67586;SHT31;55785;47.946;20.540;2024-03-17T05:18:28;7.68;92.17
67586;SHT31;55785;47.946;20.540;2024-03-17T05:21:03;7.71;92.43
67586;SHT31;55785;47.946;20.540;2024-03-17T05:23:30;7.77;92.33
67586;SHT31;55785;47.946;20.540;2024-03-17T05:25:57;7.79;92.36
67586;SHT31;55785;47.946;20.540;2024-03-17T05:28:24;7.81;92.21
67586;SHT31;55785;47.946;20.540;2024-03-17T05:30:49;7.81;92.07
67586;SHT31;55785;47.946;20.540;2024-03-17T05:33:14;7.82;91.85
67586;SHT31;55785;47.946;20.540;2024-03-17T05:35:40;7.78;91.36
67586;SHT31;55785;47.946;20.540;2024-03-17T05:38:13;7.78;92.03
67586;SHT31;55785;47.946;20.540;2024-03-17T05:40:38;7.89;92.84
67586;SHT31;55785;47.946;20.540;2024-03-17T05:43:03;7.98;93.03
67586;SHT31;55785;47.946;20.540;2024-03-17T05:45:29;8.06;93.13
67586;SHT31;55785;47.946;20.540;2024-03-17T05:47:54;8.12;92.98
67586;SHT31;55785;47.946;20.540;2024-03-17T05:50:19;8.13;93.00
67586;SHT31;55785;47.946;20.540;2024-03-17T05:52:45;8.17;93.21
67586;SHT31;55785;47.946;20.540;2024-03-17T05:55:10;8.14;93.18
67586;SHT31;55785;47.946;20.540;2024-03-17T05:57:35;8.20;93.20
67586;SHT31;55785;47.946;20.540;2024-03-17T06:00:01;8.19;93.21
67586;SHT31;55785;47.946;20.540;2024-03-17T06:02:26;8.23;93.21
67586;SHT31;55785;47.946;20.540;2024-03-17T06:04:51;8.29;93.13
67586;SHT31;55785;47.946;20.540;2024-03-17T06:07:17;8.33;93.06
67586;SHT31;55785;47.946;20.540;2024-03-17T06:09:42;8.37;92.96
67586;SHT31;55785;47.946;20.540;2024-03-17T06:12:07;8.41;92.76
67586;SHT31;55785;47.946;20.540;2024-03-17T06:14:33;8.44;92.58
67586;SHT31;55785;47.946;20.540;2024-03-17T06:16:58;8.54;92.55
67586;SHT31;55785;47.946;20.540;2024-03-17T06:19:24;8.53;92.44
67586;SHT31;55785;47.946;20.540;2024-03-17T06:21:49;8.57;92.47
67586;SHT31;55785;47.946;20.540;2024-03-17T06:24:14;8.58;92.34
67586;SHT31;55785;47.946;20.540;2024-03-17T06:26:40;8.50;92.36
67586;SHT31;55785;47.946;20.540;2024-03-17T06:29:05;8.54;92.50
67586;SHT31;55785;47.946;20.540;2024-03-17T06:31:30;8.50;92.51
67586;SHT31;55785;47.946;20.540;2024-03-17T06:33:56;8.47;92.54
67586;SHT31;55785;47.946;20.540;2024-03-17T06:36:21;8.47;92.52
67586;SHT31;55785;47.946;20.540;2024-03-17T06:38:46;8.63;92.58
67586;SHT31;55785;47.946;20.540;2024-03-17T06:41:12;8.71;92.57
67586;SHT31;55785;47.946;20.540;2024-03-17T06:43:37;8.79;92.61
67586;SHT31;55785;47.946;20.540;2024-03-17T06:46:02;8.81;92.52
67586;SHT31;55785;47.946;20.540;2024-03-17T06:48:28;8.76;92.31
67586;SHT31;55785;47.946;20.540;2024-03-17T06:50:54;8.69;92.33
67586;SHT31;55785;47.946;20.540;2024-03-17T06:53:20;8.71;92.43
67586;SHT31;55785;47.946;20.540;2024-03-17T06:55:53;8.72;92.44
67586;SHT31;55785;47.946;20.540;2024-03-17T06:58:19;8.75;92.45
67586;SHT31;55785;47.946;20.540;2024-03-17T07:00:54;8.78;92.43
67586;SHT31;55785;47.946;20.540;2024-03-17T07:03:22;8.85;92.40
67586;SHT31;55785;47.946;20.540;2024-03-17T07:06:00;8.98;92.49
67586;SHT31;55785;47.946;20.540;2024-03-17T07:08:26;9.13;92.48
67586;SHT31;55785;47.946;20.540;2024-03-17T07:11:10;9.11;92.42
67586;SHT31;55785;47.946;20.540;2024-03-17T07:13:37;9.06;92.09
67586;SHT31;55785;47.946;20.540;2024-03-17T07:16:03;9.05;92.14
67586;SHT31;55785;47.946;20.540;2024-03-17T07:18:29;9.13;92.12
67586;SHT31;55785;47.946;20.540;2024-03-17T07:20:58;9.26;92.22
67586;SHT31;55785;47.946;20.540;2024-03-17T07:23:24;9.37;92.10
67586;SHT31;55785;47.946;20.540;2024-03-17T07:25:58;9.43;91.98
67586;SHT31;55785;47.946;20.540;2024-03-17T07:28:24;9.44;91.56
67586;SHT31;55785;47.946;20.540;2024-03-17T07:30:54;9.55;91.74
67586;SHT31;55785;47.946;20.540;2024-03-17T07:33:20;9.64;91.65
67586;SHT31;55785;47.946;20.540;2024-03-17T07:35:54;9.60;91.14
67586;SHT31;55785;47.946;20.540;2024-03-17T07:38:19;9.63;91.09
67586;SHT31;55785;47.946;20.540;2024-03-17T07:40:54;9.55;90.66
67586;SHT31;55785;47.946;20.540;2024-03-17T07:43:20;9.47;90.27
67586;SHT31;55785;47.946;20.540;2024-03-17T07:45:45;9.39;90.34
67586;SHT31;55785;47.946;20.540;2024-03-17T07:48:10;9.40;90.38
67586;SHT31;55785;47.946;20.540;2024-03-17T07:50:36;9.40;90.49
67586;SHT31;55785;47.946;20.540;2024-03-17T07:53:01;9.55;90.21
67586;SHT31;55785;47.946;20.540;2024-03-17T07:55:26;9.58;90.22
67586;SHT31;55785;47.946;20.540;2024-03-17T07:57:52;9.60;90.32
67586;SHT31;55785;47.946;20.540;2024-03-17T08:00:17;9.53;90.33
67586;SHT31;55785;47.946;20.540;2024-03-17T08:02:45;9.48;90.17
67586;SHT31;55785;47.946;20.540;2024-03-17T08:05:10;9.42;90.01
67586;SHT31;55785;47.946;20.540;2024-03-17T08:07:35;9.15;90.49
67586;SHT31;55785;47.946;20.540;2024-03-17T08:10:01;8.85;90.94
67586;SHT31;55785;47.946;20.540;2024-03-17T08:12:29;8.71;91.31
67586;SHT31;55785;47.946;20.540;2024-03-17T08:14:54;8.61;91.61
67586;SHT31;55785;47.946;20.540;2024-03-17T08:17:19;8.58;91.68
67586;SHT31;55785;47.946;20.540;2024-03-17T08:19:45;8.58;91.70
67586;SHT31;55785;47.946;20.540;2024-03-17T08:22:10;8.54;91.77
67586;SHT31;55785;47.946;20.540;2024-03-17T08:24:36;8.60;91.84
67586;SHT31;55785;47.946;20.540;2024-03-17T08:27:01;8.58;91.88
67586;SHT31;55785;47.946;20.540;2024-03-17T08:29:26;8.54;91.72
67586;SHT31;55785;47.946;20.540;2024-03-17T08:31:52;8.54;91.59
67586;SHT31;55785;47.946;20.540;2024-03-17T08:34:17;8.58;91.62
67586;SHT31;55785;47.946;20.540;2024-03-17T08:36:42;8.63;91.49
67586;SHT31;55785;47.946;20.540;2024-03-17T08:39:08;8.64;91.40
67586;SHT31;55785;47.946;20.540;2024-03-17T08:41:33;8.68;91.08
67586;SHT31;55785;47.946;20.540;2024-03-17T08:43:58;8.72;90.93
67586;SHT31;55785;47.946;20.540;2024-03-17T08:46:24;8.76;90.82
67586;SHT31;55785;47.946;20.540;2024-03-17T08:48:49;8.84;90.63
67586;SHT31;55785;47.946;20.540;2024-03-17T08:51:14;8.84;90.17
67586;SHT31;55785;47.946;20.540;2024-03-17T08:53:40;8.84;88.84
67586;SHT31;55785;47.946;20.540;2024-03-17T08:56:05;8.95;88.51
67586;SHT31;55785;47.946;20.540;2024-03-17T08:58:31;8.95;87.90
67586;SHT31;55785;47.946;20.540;2024-03-17T09:00:56;8.96;86.68
67586;SHT31;55785;47.946;20.540;2024-03-17T09:03:21;8.99;86.33
67586;SHT31;55785;47.946;20.540;2024-03-17T09:05:47;9.01;86.48
67586;SHT31;55785;47.946;20.540;2024-03-17T09:08:23;8.98;85.79
67586;SHT31;55785;47.946;20.540;2024-03-17T09:10:52;8.95;85.28
67586;SHT31;55785;47.946;20.540;2024-03-17T09:13:24;8.99;85.29
67586;SHT31;55785;47.946;20.540;2024-03-17T09:15:58;8.95;85.26
67586;SHT31;55785;47.946;20.540;2024-03-17T09:18:23;8.81;85.36
67586;SHT31;55785;47.946;20.540;2024-03-17T09:21:03;8.54;85.21
67586;SHT31;55785;47.946;20.540;2024-03-17T09:23:29;8.36;85.92
67586;SHT31;55785;47.946;20.540;2024-03-17T09:25:59;8.25;85.96
67586;SHT31;55785;47.946;20.540;2024-03-17T09:28:25;8.17;86.35
67586;SHT31;55785;47.946;20.540;2024-03-17T09:30:50;8.14;86.59
67586;SHT31;55785;47.946;20.540;2024-03-17T09:33:16;8.06;85.58
67586;SHT31;55785;47.946;20.540;2024-03-17T09:35:41;8.00;85.88
67586;SHT31;55785;47.946;20.540;2024-03-17T09:38:06;7.93;85.41
67586;SHT31;55785;47.946;20.540;2024-03-17T09:40:32;7.86;85.13
67586;SHT31;55785;47.946;20.540;2024-03-17T09:42:57;7.83;86.23
67586;SHT31;55785;47.946;20.540;2024-03-17T09:45:24;7.79;85.67
67586;SHT31;55785;47.946;20.540;2024-03-17T09:47:51;7.75;85.60
67586;SHT31;55785;47.946;20.540;2024-03-17T09:50:16;7.69;85.15
67586;SHT31;55785;47.946;20.540;2024-03-17T09:52:42;7.69;85.28
67586;SHT31;55785;47.946;20.540;2024-03-17T09:55:16;7.67;85.42
67586;SHT31;55785;47.946;20.540;2024-03-17T09:57:42;7.67;85.60
67586;SHT31;55785;47.946;20.540;2024-03-17T10:00:10;7.71;85.03
67586;SHT31;55785;47.946;20.540;2024-03-17T10:02:50;7.72;85.17
67586;SHT31;55785;47.946;20.540;2024-03-17T10:05:23;7.77;85.65
67586;SHT31;55785;47.946;20.540;2024-03-17T10:07:50;7.83;85.96
67586;SHT31;55785;47.946;20.540;2024-03-17T10:10:15;7.88;85.39
67586;SHT31;55785;47.946;20.540;2024-03-17T10:12:41;7.81;84.93
67586;SHT31;55785;47.946;20.540;2024-03-17T10:15:12;7.82;85.31
67586;SHT31;55785;47.946;20.540;2024-03-17T10:17:37;7.79;85.87
67586;SHT31;55785;47.946;20.540;2024-03-17T10:20:20;7.74;86.31
67586;SHT31;55785;47.946;20.540;2024-03-17T10:23:00;7.83;86.54
67586;SHT31;55785;47.946;20.540;2024-03-17T10:25:26;7.82;86.44
67586;SHT31;55785;47.946;20.540;2024-03-17T10:27:52;7.72;86.59
67586;SHT31;55785;47.946;20.540;2024-03-17T10:30:18;7.68;87.40
67586;SHT31;55785;47.946;20.540;2024-03-17T10:32:44;7.71;87.27
67586;SHT31;55785;47.946;20.540;2024-03-17T10:35:30;7.67;86.57
67586;SHT31;55785;47.946;20.540;2024-03-17T10:37:57;7.64;86.81
67586;SHT31;55785;47.946;20.540;2024-03-17T10:40:24;7.59;86.21
67586;SHT31;55785;47.946;20.540;2024-03-17T10:42:50;7.75;87.03
67586;SHT31;55785;47.946;20.540;2024-03-17T10:45:15;7.92;86.70
67586;SHT31;55785;47.946;20.540;2024-03-17T10:47:43;8.00;86.86
67586;SHT31;55785;47.946;20.540;2024-03-17T10:50:21;8.10;86.90
67586;SHT31;55785;47.946;20.540;2024-03-17T10:52:49;8.13;85.77
67586;SHT31;55785;47.946;20.540;2024-03-17T10:55:23;8.25;85.42
67586;SHT31;55785;47.946;20.540;2024-03-17T10:57:54;8.12;85.33
67586;SHT31;55785;47.946;20.540;2024-03-17T11:00:21;8.03;84.95
67586;SHT31;55785;47.946;20.540;2024-03-17T11:02:46;8.00;85.43
67586;SHT31;55785;47.946;20.540;2024-03-17T11:05:20;8.06;86.02
67586;SHT31;55785;47.946;20.540;2024-03-17T11:07:48;8.00;85.87
67586;SHT31;55785;47.946;20.540;2024-03-17T11:10:26;8.00;85.74
67586;SHT31;55785;47.946;20.540;2024-03-17T11:12:54;7.95;85.66
67586;SHT31;55785;47.946;20.540;2024-03-17T11:15:34;7.96;86.19
67586;SHT31;55785;47.946;20.540;2024-03-17T11:20:55;7.78;86.54
67586;SHT31;55785;47.946;20.540;2024-03-17T11:23:28;7.77;86.31
67586;SHT31;55785;47.946;20.540;2024-03-17T11:25:55;7.78;87.24
67586;SHT31;55785;47.946;20.540;2024-03-17T11:31:35;7.83;86.90
67586;SHT31;55785;47.946;20.540;2024-03-17T11:34:04;7.88;86.04
67586;SHT31;55785;47.946;20.540;2024-03-17T11:36:33;7.79;86.68
67586;SHT31;55785;47.946;20.540;2024-03-17T11:46:44;7.77;87.05
67586;SHT31;55785;47.946;20.540;2024-03-17T11:49:37;7.85;87.23
67586;SHT31;55785;47.946;20.540;2024-03-17T11:52:13;7.85;86.83
67586;SHT31;55785;47.946;20.540;2024-03-17T11:54:44;7.90;85.63
67586;SHT31;55785;47.946;20.540;2024-03-17T11:57:11;7.95;85.84
67586;SHT31;55785;47.946;20.540;2024-03-17T11:59:41;7.90;85.84
67586;SHT31;55785;47.946;20.540;2024-03-17T12:02:20;7.85;85.55
67586;SHT31;55785;47.946;20.540;2024-03-17T12:04:45;7.85;85.73
67586;SHT31;55785;47.946;20.540;2024-03-17T12:07:13;7.99;86.51
67586;SHT31;55785;47.946;20.540;2024-03-17T12:09:40;8.00;86.14
67586;SHT31;55785;47.946;20.540;2024-03-17T12:14:37;8.03;86.32
67586;SHT31;55785;47.946;20.540;2024-03-17T12:17:08;8.17;86.82
67586;SHT31;55785;47.946;20.540;2024-03-17T12:19:35;8.23;86.98
67586;SHT31;55785;47.946;20.540;2024-03-17T12:22:02;8.30;86.52
67586;SHT31;55785;47.946;20.540;2024-03-17T12:24:29;8.37;86.53
67586;SHT31;55785;47.946;20.540;2024-03-17T12:26:55;8.36;86.62
67586;SHT31;55785;47.946;20.540;2024-03-17T12:29:25;8.37;86.53
67586;SHT31;55785;47.946;20.540;2024-03-17T12:31:51;8.50;87.01
67586;SHT31;55785;47.946;20.540;2024-03-17T12:34:18;8.43;86.72
67586;SHT31;55785;47.946;20.540;2024-03-17T12:36:44;8.46;87.03
67586;SHT31;55785;47.946;20.540;2024-03-17T12:39:22;8.43;87.30
67586;SHT31;55785;47.946;20.540;2024-03-17T12:42:02;8.30;86.78
67586;SHT31;55785;47.946;20.540;2024-03-17T12:44:28;8.37;86.82
67586;SHT31;55785;47.946;20.540;2024-03-17T12:46:57;8.50;87.04
67586;SHT31;55785;47.946;20.540;2024-03-17T12:49:23;8.53;86.44
67586;SHT31;55785;47.946;20.540;2024-03-17T12:51:49;8.55;86.50
67586;SHT31;55785;47.946;20.540;2024-03-17T12:54:15;8.65;86.15
67586;SHT31;55785;47.946;20.540;2024-03-17T12:56:40;8.78;86.13
67586;SHT31;55785;47.946;20.540;2024-03-17T12:59:09;8.86;86.18
67586;SHT31;55785;47.946;20.540;2024-03-17T13:01:35;8.85;85.36
67586;SHT31;55785;47.946;20.540;2024-03-17T13:04:06;8.98;85.92
67586;SHT31;55785;47.946;20.540;2024-03-17T13:06:32;8.99;85.57
67586;SHT31;55785;47.946;20.540;2024-03-17T13:08:57;8.95;85.29
67586;SHT31;55785;47.946;20.540;2024-03-17T13:11:22;8.98;85.41
67586;SHT31;55785;47.946;20.540;2024-03-17T13:13:48;9.06;85.57
67586;SHT31;55785;47.946;20.540;2024-03-17T13:16:13;9.05;83.92
67586;SHT31;55785;47.946;20.540;2024-03-17T13:18:39;9.12;85.05
67586;SHT31;55785;47.946;20.540;2024-03-17T13:21:04;9.16;84.71
67586;SHT31;55785;47.946;20.540;2024-03-17T13:23:29;9.23;84.37
67586;SHT31;55785;47.946;20.540;2024-03-17T13:25:55;9.26;84.63
67586;SHT31;55785;47.946;20.540;2024-03-17T13:28:20;9.30;84.28
67586;SHT31;55785;47.946;20.540;2024-03-17T13:30:45;9.27;84.83
67586;SHT31;55785;47.946;20.540;2024-03-17T13:33:11;9.36;84.11
67586;SHT31;55785;47.946;20.540;2024-03-17T13:35:37;9.48;84.01
67586;SHT31;55785;47.946;20.540;2024-03-17T13:38:03;9.48;83.44
67586;SHT31;55785;47.946;20.540;2024-03-17T13:40:28;9.42;83.14
67586;SHT31;55785;47.946;20.540;2024-03-17T13:42:54;9.40;82.99
67586;SHT31;55785;47.946;20.540;2024-03-17T13:45:23;9.42;82.85
67586;SHT31;55785;47.946;20.540;2024-03-17T13:47:56;9.48;83.27
67586;SHT31;55785;47.946;20.540;2024-03-17T13:50:22;9.50;82.85
67586;SHT31;55785;47.946;20.540;2024-03-17T13:52:47;9.65;83.71
67586;SHT31;55785;47.946;20.540;2024-03-17T13:55:17;9.70;82.35
67586;SHT31;55785;47.946;20.540;2024-03-17T13:57:53;9.90;81.58
67586;SHT31;55785;47.946;20.540;2024-03-17T14:00:19;10.09;81.15
67586;SHT31;55785;47.946;20.540;2024-03-17T14:02:48;10.52;79.85
67586;SHT31;55785;47.946;20.540;2024-03-17T14:05:16;10.46;78.71
67586;SHT31;55785;47.946;20.540;2024-03-17T14:07:41;10.35;78.85
67586;SHT31;55785;47.946;20.540;2024-03-17T14:10:09;10.31;80.02
67586;SHT31;55785;47.946;20.540;2024-03-17T14:12:35;10.31;79.91
67586;SHT31;55785;47.946;20.540;2024-03-17T14:15:03;10.60;80.31
67586;SHT31;55785;47.946;20.540;2024-03-17T14:17:29;11.01;78.50
67586;SHT31;55785;47.946;20.540;2024-03-17T14:19:54;11.28;76.85
67586;SHT31;55785;47.946;20.540;2024-03-17T14:22:19;11.45;76.10
67586;SHT31;55785;47.946;20.540;2024-03-17T14:24:45;11.21;74.68
67586;SHT31;55785;47.946;20.540;2024-03-17T14:27:12;11.00;76.43
67586;SHT31;55785;47.946;20.540;2024-03-17T14:29:37;10.83;76.14
67586;SHT31;55785;47.946;20.540;2024-03-17T14:32:03;10.71;77.34
67586;SHT31;55785;47.946;20.540;2024-03-17T14:34:28;10.52;77.16
67586;SHT31;55785;47.946;20.540;2024-03-17T14:36:53;10.43;78.11
67586;SHT31;55785;47.946;20.540;2024-03-17T14:39:19;10.35;78.30
67586;SHT31;55785;47.946;20.540;2024-03-17T14:41:44;10.32;79.34
67586;SHT31;55785;47.946;20.540;2024-03-17T14:44:10;10.40;80.19
67586;SHT31;55785;47.946;20.540;2024-03-17T14:46:35;10.39;78.45
67586;SHT31;55785;47.946;20.540;2024-03-17T14:49:00;10.38;79.08
67586;SHT31;55785;47.946;20.540;2024-03-17T14:51:26;10.56;79.03
67586;SHT31;55785;47.946;20.540;2024-03-17T14:53:51;10.55;79.08
67586;SHT31;55785;47.946;20.540;2024-03-17T14:56:19;10.33;78.72
67586;SHT31;55785;47.946;20.540;2024-03-17T14:58:45;10.05;80.37
67586;SHT31;55785;47.946;20.540;2024-03-17T15:01:11;9.99;81.23
67586;SHT31;55785;47.946;20.540;2024-03-17T15:03:36;9.92;80.47
67586;SHT31;55785;47.946;20.540;2024-03-17T15:06:02;9.90;81.01
67586;SHT31;55785;47.946;20.540;2024-03-17T15:08:27;9.88;80.96
67586;SHT31;55785;47.946;20.540;2024-03-17T15:10:53;9.88;80.29
67586;SHT31;55785;47.946;20.540;2024-03-17T15:13:18;9.77;81.15
67586;SHT31;55785;47.946;20.540;2024-03-17T15:15:43;9.80;81.52
67586;SHT31;55785;47.946;20.540;2024-03-17T15:18:09;9.88;80.95
67586;SHT31;55785;47.946;20.540;2024-03-17T15:20:34;9.87;81.34
67586;SHT31;55785;47.946;20.540;2024-03-17T15:22:59;9.87;81.44
67586;SHT31;55785;47.946;20.540;2024-03-17T15:25:25;9.77;80.58
67586;SHT31;55785;47.946;20.540;2024-03-17T15:27:50;9.69;80.65
67586;SHT31;55785;47.946;20.540;2024-03-17T15:30:18;9.55;81.44
67586;SHT31;55785;47.946;20.540;2024-03-17T15:32:47;9.48;81.75
67586;SHT31;55785;47.946;20.540;2024-03-17T15:35:13;9.43;82.27
67586;SHT31;55785;47.946;20.540;2024-03-17T15:37:41;9.43;82.53
67586;SHT31;55785;47.946;20.540;2024-03-17T15:40:08;9.44;82.84
67586;SHT31;55785;47.946;20.540;2024-03-17T15:42:33;9.46;82.84
67586;SHT31;55785;47.946;20.540;2024-03-17T15:44:59;9.39;82.88